createdAt,value
2022-07-30T00:05:03.765Z,148.20
2022-07-30T00:07:27.798Z,150.88
2022-07-30T00:12:59.788Z,151.57
2022-07-30T00:18:31.510Z,151.29
2022-07-30T00:24:03.535Z,152.12
2022-07-30T00:29:35.832Z,151.84
2022-07-30T00:35:07.633Z,152.26
2022-07-30T00:40:39.866Z,151.43
2022-07-30T00:46:11.622Z,151.84
2022-07-30T00:51:43.486Z,152.40
2022-07-30T00:57:15.840Z,152.26
2022-07-30T03:03:33.385Z,160.61
2022-07-30T03:09:04.950Z,160.77
2022-07-30T03:14:36.739Z,160.30
2022-07-30T03:20:08.275Z,160.15
2022-07-30T03:25:40.238Z,159.69
2022-07-30T03:31:12.160Z,161.08
2022-07-30T03:36:43.693Z,161.08
2022-07-30T03:42:15.554Z,161.23
2022-07-30T03:47:47.319Z,163.28
2022-07-30T03:53:18.785Z,162.17
2022-07-30T03:58:50.454Z,161.70
2022-07-30T04:04:22.665Z,162.65
2022-07-30T04:09:54.308Z,161.39
2022-07-30T04:16:38.049Z,160.92
2022-07-30T04:20:57.819Z,160.92
2022-07-30T04:26:29.469Z,161.08
2022-07-30T04:32:01.156Z,160.46
2022-07-30T04:37:33.030Z,160.92
2022-07-30T04:43:04.742Z,159.38
2022-07-30T04:48:36.496Z,158.48
2022-07-30T04:54:08.153Z,158.03
2022-07-30T04:59:39.624Z,156.99
2022-07-30T05:05:11.049Z,155.23
2022-07-30T05:10:43.047Z,154.37
2022-07-30T05:16:14.882Z,151.02
2022-07-30T05:21:46.815Z,149.93
2022-07-30T05:27:18.508Z,149.26
2022-07-30T05:32:50.186Z,147.29
2022-07-30T05:38:22.179Z,147.68
2022-07-30T05:43:55.623Z,147.55
2022-07-30T05:49:26.285Z,146.64
2022-07-30T05:54:58.189Z,147.29
2022-07-30T06:00:30.100Z,145.87
2022-07-30T06:06:01.731Z,144.73
2022-07-30T06:11:33.710Z,144.48
2022-07-30T06:17:05.500Z,142.63
2022-07-30T06:22:37.198Z,139.88
2022-07-30T06:28:34.816Z,138.72
2022-07-30T06:33:40.879Z,138.03
2022-07-30T06:39:12.691Z,137.01
2022-07-30T06:44:44.302Z,136.22
2022-07-30T06:50:16.076Z,133.07
2022-07-30T06:55:47.709Z,133.39
2022-07-30T07:01:19.861Z,130.27
2022-07-30T07:06:52.098Z,126.81
2022-07-30T07:12:24.086Z,121.36
2022-07-30T07:17:55.925Z,117.93
2022-07-30T07:23:41.474Z,114.14
2022-07-30T07:29:03.364Z,110.22
2022-07-30T07:34:30.962Z,108.71
2022-07-30T07:40:02.844Z,108.22
2022-07-30T07:45:34.722Z,106.22
2022-07-30T07:51:09.432Z,103.78
2022-07-30T07:56:38.363Z,101.94
2022-07-30T08:02:10.404Z,100.89
2022-07-30T08:07:42.657Z,100.11
2022-07-30T08:13:48.864Z,98.33
2022-07-30T08:18:46.461Z,97.30
2022-07-30T08:24:18.455Z,96.40
2022-07-30T08:29:50.497Z,94.82
2022-07-30T08:35:22.200Z,95.47
2022-07-30T08:40:53.859Z,94.17
2022-07-30T08:46:25.770Z,94.33
2022-07-30T08:51:57.445Z,95.76
2022-07-30T08:57:29.158Z,94.33
2022-07-30T09:03:01.178Z,95.47
2022-07-30T09:08:32.950Z,94.49
2022-07-30T09:19:34.429Z,95.90
2022-07-30T09:25:06.250Z,96.02
2022-07-30T09:30:38.132Z,97.08
2022-07-30T09:36:10.370Z,97.87
2022-07-30T09:41:41.839Z,97.87
2022-07-30T09:47:13.517Z,97.59
2022-07-30T09:52:49.080Z,98.05
2022-07-30T09:58:26.710Z,99.33
2022-07-30T10:03:47.950Z,100.04
2022-07-30T10:09:19.386Z,101.32
2022-07-30T10:14:50.705Z,101.94
2022-07-30T10:20:22.102Z,103.52
2022-07-30T10:25:54.843Z,104.10
2022-07-30T10:31:49.088Z,104.75
2022-07-30T10:36:57.631Z,105.95
2022-07-30T10:42:29.514Z,106.83
2022-07-30T10:48:01.804Z,107.18
2022-07-30T10:53:33.861Z,107.52
2022-07-30T10:59:05.488Z,107.25
2022-07-30T11:04:37.693Z,107.52
2022-07-30T11:10:09.863Z,107.45
2022-07-30T11:15:41.369Z,109.21
2022-07-30T11:21:13.616Z,109.71
2022-07-30T11:26:45.364Z,111.32
2022-07-30T11:32:17.001Z,111.32
2022-07-30T11:37:52.337Z,111.18
2022-07-30T11:43:25.626Z,111.32
2022-07-30T11:48:52.968Z,111.77
2022-07-30T11:59:54.673Z,113.99
2022-07-30T12:05:26.419Z,114.38
2022-07-30T12:10:58.238Z,115.64
2022-07-30T12:16:30.293Z,116.70
2022-07-30T12:22:02.421Z,116.94
2022-07-30T12:27:34.102Z,117.27
2022-07-30T12:33:06.068Z,117.77
2022-07-30T12:38:37.735Z,117.77
2022-07-30T12:44:09.508Z,118.52
2022-07-30T12:49:48.939Z,117.93
2022-07-30T12:55:13.185Z,118.94
2022-07-30T13:00:45.187Z,119.45
2022-07-30T13:06:17.206Z,119.45
2022-07-30T13:11:49.112Z,120.84
2022-07-30T13:17:20.795Z,119.88
2022-07-30T13:19:32.352Z,123.70
2022-07-30T13:25:04.215Z,124.72
2022-07-30T13:30:35.744Z,123.15
2022-07-30T13:36:07.811Z,122.61
2022-07-30T13:41:39.329Z,121.99
2022-07-30T13:47:11.323Z,122.88
2022-07-30T13:52:43.208Z,122.52
2022-07-30T13:58:14.735Z,123.25
2022-07-30T14:03:50.083Z,123.52
2022-07-30T14:09:18.587Z,123.34
2022-07-30T14:14:50.802Z,123.15
2022-07-30T14:20:23.030Z,123.06
2022-07-30T14:25:54.516Z,122.97
2022-07-30T14:31:26.442Z,122.52
2022-07-30T14:36:57.927Z,123.15
2022-07-30T14:42:30.159Z,123.70
2022-07-30T14:48:02.422Z,123.61
2022-07-30T14:53:33.731Z,122.79
2022-07-30T14:59:05.599Z,122.07
2022-07-30T15:04:37.560Z,121.63
2022-07-30T15:10:09.258Z,122.25
2022-07-30T15:15:43.285Z,122.79
2022-07-30T15:21:14.940Z,122.79
2022-07-30T15:26:46.589Z,123.34
2022-07-30T15:32:18.236Z,123.70
2022-07-30T15:37:50.095Z,124.07
2022-07-30T15:43:21.752Z,125.00
2022-07-30T15:48:53.820Z,124.35
2022-07-30T15:54:25.523Z,125.56
2022-07-30T16:05:28.375Z,127.58
2022-07-30T16:11:00.375Z,128.17
2022-07-30T16:16:32.025Z,130.07
2022-07-30T16:22:04.158Z,130.68
2022-07-30T16:27:35.577Z,130.88
2022-07-30T16:33:07.397Z,131.09
2022-07-30T16:38:39.222Z,130.47
2022-07-30T16:49:42.343Z,131.29
2022-07-30T16:55:14.182Z,131.81
2022-07-30T17:00:45.719Z,132.55
2022-07-30T17:06:17.210Z,132.76
2022-07-30T17:11:52.124Z,132.65
2022-07-30T17:17:20.294Z,133.61
2022-07-30T17:28:27.218Z,134.68
2022-07-30T17:33:55.711Z,135.12
2022-07-30T17:40:19.769Z,135.23
2022-07-30T17:44:59.611Z,137.23
2022-07-30T17:50:31.426Z,137.91
2022-07-30T17:56:03.293Z,138.14
2022-07-30T18:01:35.638Z,137.57
2022-07-30T18:07:07.075Z,136.45
2022-07-30T18:12:38.915Z,133.71
2022-07-30T18:18:10.698Z,133.93
2022-07-30T18:29:14.045Z,129.46
2022-07-30T18:34:44.472Z,129.36
2022-07-30T18:40:18.539Z,131.19
2022-07-30T18:45:48.017Z,131.29
2022-07-30T18:51:19.461Z,129.26
2022-07-30T18:56:51.374Z,132.97
2022-07-30T19:02:23.306Z,132.02
2022-07-30T19:07:57.230Z,132.55
2022-07-30T19:13:26.829Z,131.40
2022-07-30T19:18:58.547Z,130.57
2022-07-30T19:24:30.200Z,131.29
2022-07-30T19:30:02.243Z,130.47
2022-07-30T19:35:33.893Z,131.81
2022-07-30T19:41:05.640Z,132.23
2022-07-30T19:46:37.869Z,132.23
2022-07-30T19:52:22.846Z,132.55
2022-07-30T19:57:45.649Z,133.29
2022-07-30T20:03:14.482Z,133.07
2022-07-30T20:08:45.186Z,132.34
2022-07-30T20:14:16.814Z,132.44
2022-07-30T20:19:48.762Z,133.18
2022-07-30T20:25:21.747Z,133.07
2022-07-30T20:30:52.281Z,132.86
2022-07-30T20:36:24.270Z,132.65
2022-07-30T20:41:55.434Z,134.04
2022-07-30T20:47:34.699Z,134.36
2022-07-30T20:52:58.950Z,134.90
2022-07-30T20:58:30.914Z,135.01
2022-07-30T21:04:02.259Z,135.56
2022-07-30T21:09:52.271Z,136.11
2022-07-30T21:15:23.234Z,136.22
2022-07-30T21:20:38.314Z,137.91
2022-07-30T21:26:13.375Z,140.23
2022-07-30T21:32:00.431Z,141.18
2022-07-30T21:37:37.000Z,150.61
2022-07-30T21:43:08.508Z,150.07
2022-07-30T21:48:40.395Z,148.73
2022-07-30T21:54:13.144Z,147.42
2022-07-30T21:59:43.883Z,148.07
2022-07-30T22:05:15.729Z,148.46
2022-07-30T22:10:47.454Z,149.80
2022-07-30T22:16:19.194Z,149.40
2022-07-30T22:21:51.475Z,148.86
2022-07-30T22:27:23.368Z,149.66
2022-07-30T22:32:55.191Z,148.46
2022-07-30T22:38:26.927Z,148.07
2022-07-30T22:43:58.721Z,147.68
2022-07-30T22:49:46.560Z,151.57
2022-07-30T22:55:08.782Z,151.15
2022-07-30T23:00:33.897Z,151.71
2022-07-30T23:06:05.605Z,150.88
2022-07-30T23:11:37.811Z,150.61
2022-07-30T23:17:09.229Z,149.66
2022-07-30T23:22:41.421Z,149.40
2022-07-30T23:28:13.221Z,150.20
2022-07-30T23:33:45.081Z,151.29
2022-07-30T23:39:16.487Z,151.71
2022-07-30T23:44:48.079Z,151.84
2022-07-30T23:50:20.067Z,152.82
2022-07-30T23:55:51.842Z,153.94
